sensor_id;sensor_type;location;lat;lon;timestamp;P1;durP1;ratioP1;P2;durP2;ratioP2
13252;SDS011;6693;54.370;10.132;2023-11-19T00:00:46;12.70;;;6.13;;
13252;SDS011;6693;54.370;10.132;2023-11-19T00:01:47;10.60;;;5.70;;
13252;SDS011;6693;54.370;10.132;2023-11-19T00:02:50;10.98;;;5.32;;
13252;SDS011;6693;54.370;10.132;2023-11-19T00:03:50;13.05;;;6.55;;
13252;SDS011;6693;54.370;10.132;2023-11-19T00:04:51;12.05;;;5.70;;
13252;SDS011;6693;54.370;10.132;2023-11-19T00:05:54;11.38;;;4.72;;
13252;SDS011;6693;54.370;10.132;2023-11-19T00:06:55;12.32;;;6.78;;
13252;SDS011;6693;54.370;10.132;2023-11-19T00:08:04;12.70;;;7.18;;
13252;SDS011;6693;54.370;10.132;2023-11-19T00:09:06;12.43;;;5.07;;
13252;SDS011;6693;54.370;10.132;2023-11-19T00:10:11;9.98;;;5.10;;
13252;SDS011;6693;54.370;10.132;2023-11-19T00:11:11;11.57;;;6.03;;
13252;SDS011;6693;54.370;10.132;2023-11-19T00:12:15;11.80;;;6.47;;
13252;SDS011;6693;54.370;10.132;2023-11-19T00:13:16;14.70;;;7.35;;
13252;SDS011;6693;54.370;10.132;2023-11-19T00:14:17;12.60;;;6.70;;
13252;SDS011;6693;54.370;10.132;2023-11-19T00:15:22;11.93;;;6.25;;
13252;SDS011;6693;54.370;10.132;2023-11-19T00:16:24;12.48;;;6.40;;
13252;SDS011;6693;54.370;10.132;2023-11-19T00:17:28;10.52;;;5.30;;
13252;SDS011;6693;54.370;10.132;2023-11-19T00:18:28;11.27;;;5.10;;
13252;SDS011;6693;54.370;10.132;2023-11-19T00:19:32;11.07;;;5.13;;
13252;SDS011;6693;54.370;10.132;2023-11-19T00:20:33;9.27;;;4.18;;
13252;SDS011;6693;54.370;10.132;2023-11-19T00:21:36;12.13;;;6.18;;
13252;SDS011;6693;54.370;10.132;2023-11-19T00:22:37;12.07;;;6.63;;
13252;SDS011;6693;54.370;10.132;2023-11-19T00:23:38;9.88;;;4.65;;
13252;SDS011;6693;54.370;10.132;2023-11-19T00:24:41;10.75;;;4.85;;
13252;SDS011;6693;54.370;10.132;2023-11-19T00:25:42;11.05;;;5.70;;
13252;SDS011;6693;54.370;10.132;2023-11-19T00:26:42;11.95;;;5.55;;
13252;SDS011;6693;54.370;10.132;2023-11-19T00:27:46;11.88;;;6.60;;
13252;SDS011;6693;54.370;10.132;2023-11-19T00:28:47;13.70;;;6.35;;
13252;SDS011;6693;54.370;10.132;2023-11-19T00:29:50;10.57;;;4.97;;
13252;SDS011;6693;54.370;10.132;2023-11-19T00:30:54;10.30;;;5.55;;
13252;SDS011;6693;54.370;10.132;2023-11-19T00:31:57;11.75;;;6.32;;
13252;SDS011;6693;54.370;10.132;2023-11-19T00:32:58;11.93;;;6.53;;
13252;SDS011;6693;54.370;10.132;2023-11-19T00:34:01;13.45;;;6.78;;
13252;SDS011;6693;54.370;10.132;2023-11-19T00:35:05;10.68;;;5.28;;
13252;SDS011;6693;54.370;10.132;2023-11-19T00:36:10;12.02;;;6.38;;
13252;SDS011;6693;54.370;10.132;2023-11-19T00:37:11;12.15;;;6.32;;
13252;SDS011;6693;54.370;10.132;2023-11-19T00:38:15;11.60;;;5.97;;
13252;SDS011;6693;54.370;10.132;2023-11-19T00:39:17;10.68;;;4.53;;
13252;SDS011;6693;54.370;10.132;2023-11-19T00:40:21;10.70;;;5.32;;
13252;SDS011;6693;54.370;10.132;2023-11-19T00:41:23;9.90;;;4.45;;
13252;SDS011;6693;54.370;10.132;2023-11-19T00:42:26;12.00;;;6.55;;
13252;SDS011;6693;54.370;10.132;2023-11-19T00:43:27;11.00;;;6.28;;
13252;SDS011;6693;54.370;10.132;2023-11-19T00:44:30;11.73;;;5.50;;
13252;SDS011;6693;54.370;10.132;2023-11-19T00:45:31;10.68;;;5.10;;
13252;SDS011;6693;54.370;10.132;2023-11-19T00:46:37;13.77;;;4.70;;
13252;SDS011;6693;54.370;10.132;2023-11-19T00:47:37;12.98;;;6.38;;
13252;SDS011;6693;54.370;10.132;2023-11-19T00:48:38;11.00;;;5.38;;
13252;SDS011;6693;54.370;10.132;2023-11-19T00:49:41;12.00;;;5.97;;
13252;SDS011;6693;54.370;10.132;2023-11-19T00:50:42;11.77;;;6.80;;
13252;SDS011;6693;54.370;10.132;2023-11-19T00:51:46;11.70;;;6.78;;
13252;SDS011;6693;54.370;10.132;2023-11-19T00:52:47;9.32;;;4.25;;
13252;SDS011;6693;54.370;10.132;2023-11-19T00:53:50;9.63;;;4.38;;
13252;SDS011;6693;54.370;10.132;2023-11-19T00:54:50;10.63;;;5.38;;
13252;SDS011;6693;54.370;10.132;2023-11-19T00:55:54;10.73;;;5.55;;
13252;SDS011;6693;54.370;10.132;2023-11-19T00:56:54;15.43;;;7.95;;
13252;SDS011;6693;54.370;10.132;2023-11-19T00:57:58;12.50;;;6.40;;
13252;SDS011;6693;54.370;10.132;2023-11-19T00:58:58;11.50;;;6.00;;
13252;SDS011;6693;54.370;10.132;2023-11-19T01:00:02;10.48;;;5.72;;
13252;SDS011;6693;54.370;10.132;2023-11-19T01:01:09;9.20;;;4.75;;
13252;SDS011;6693;54.370;10.132;2023-11-19T01:02:12;11.15;;;6.28;;
13252;SDS011;6693;54.370;10.132;2023-11-19T01:03:16;10.55;;;5.57;;
13252;SDS011;6693;54.370;10.132;2023-11-19T01:04:17;10.15;;;5.03;;
13252;SDS011;6693;54.370;10.132;2023-11-19T01:05:20;12.23;;;5.95;;
13252;SDS011;6693;54.370;10.132;2023-11-19T01:06:28;9.80;;;4.70;;
13252;SDS011;6693;54.370;10.132;2023-11-19T01:07:32;9.07;;;4.63;;
13252;SDS011;6693;54.370;10.132;2023-11-19T01:08:39;10.77;;;5.82;;
13252;SDS011;6693;54.370;10.132;2023-11-19T01:09:42;11.48;;;5.25;;
13252;SDS011;6693;54.370;10.132;2023-11-19T01:10:43;11.20;;;5.78;;
13252;SDS011;6693;54.370;10.132;2023-11-19T01:11:46;10.48;;;5.78;;
13252;SDS011;6693;54.370;10.132;2023-11-19T01:12:50;8.75;;;4.15;;
13252;SDS011;6693;54.370;10.132;2023-11-19T01:13:53;10.13;;;4.45;;
13252;SDS011;6693;54.370;10.132;2023-11-19T01:14:54;10.82;;;5.85;;
13252;SDS011;6693;54.370;10.132;2023-11-19T01:15:58;11.98;;;5.95;;
13252;SDS011;6693;54.370;10.132;2023-11-19T01:16:59;10.32;;;4.82;;
13252;SDS011;6693;54.370;10.132;2023-11-19T01:18:04;9.00;;;4.50;;
13252;SDS011;6693;54.370;10.132;2023-11-19T01:19:05;10.98;;;5.70;;
13252;SDS011;6693;54.370;10.132;2023-11-19T01:20:08;12.65;;;4.30;;
13252;SDS011;6693;54.370;10.132;2023-11-19T01:21:12;11.13;;;5.78;;
13252;SDS011;6693;54.370;10.132;2023-11-19T01:22:14;9.90;;;4.95;;
13252;SDS011;6693;54.370;10.132;2023-11-19T01:23:19;9.82;;;5.22;;
13252;SDS011;6693;54.370;10.132;2023-11-19T01:24:19;10.38;;;5.30;;
13252;SDS011;6693;54.370;10.132;2023-11-19T01:25:23;9.63;;;3.97;;
13252;SDS011;6693;54.370;10.132;2023-11-19T01:26:23;9.80;;;4.47;;
13252;SDS011;6693;54.370;10.132;2023-11-19T01:27:26;10.38;;;5.05;;
13252;SDS011;6693;54.370;10.132;2023-11-19T01:28:27;8.27;;;3.80;;
13252;SDS011;6693;54.370;10.132;2023-11-19T01:29:27;9.60;;;5.25;;
13252;SDS011;6693;54.370;10.132;2023-11-19T01:30:31;8.90;;;3.92;;
13252;SDS011;6693;54.370;10.132;2023-11-19T01:31:31;7.93;;;3.22;;
13252;SDS011;6693;54.370;10.132;2023-11-19T01:32:38;9.77;;;4.90;;
13252;SDS011;6693;54.370;10.132;2023-11-19T01:33:43;9.88;;;4.75;;
13252;SDS011;6693;54.370;10.132;2023-11-19T01:34:46;8.68;;;4.15;;
13252;SDS011;6693;54.370;10.132;2023-11-19T01:35:47;8.73;;;4.55;;
13252;SDS011;6693;54.370;10.132;2023-11-19T01:36:47;10.23;;;4.88;;
13252;SDS011;6693;54.370;10.132;2023-11-19T01:37:53;10.15;;;5.07;;
13252;SDS011;6693;54.370;10.132;2023-11-19T01:38:53;7.63;;;3.67;;
13252;SDS011;6693;54.370;10.132;2023-11-19T01:40:00;9.95;;;4.75;;
13252;SDS011;6693;54.370;10.132;2023-11-19T01:41:03;9.07;;;5.45;;
13252;SDS011;6693;54.370;10.132;2023-11-19T01:42:07;8.45;;;3.92;;
13252;SDS011;6693;54.370;10.132;2023-11-19T01:43:08;8.50;;;3.55;;
13252;SDS011;6693;54.370;10.132;2023-11-19T01:44:11;8.45;;;4.57;;
13252;SDS011;6693;54.370;10.132;2023-11-19T01:45:17;8.43;;;4.68;;
13252;SDS011;6693;54.370;10.132;2023-11-19T01:46:26;8.15;;;4.40;;
13252;SDS011;6693;54.370;10.132;2023-11-19T01:47:28;9.00;;;3.65;;
13252;SDS011;6693;54.370;10.132;2023-11-19T01:48:33;9.45;;;4.38;;
13252;SDS011;6693;54.370;10.132;2023-11-19T01:49:37;6.85;;;3.30;;
13252;SDS011;6693;54.370;10.132;2023-11-19T01:50:40;7.53;;;3.13;;
13252;SDS011;6693;54.370;10.132;2023-11-19T01:51:41;8.13;;;4.40;;
13252;SDS011;6693;54.370;10.132;2023-11-19T01:52:45;6.72;;;2.75;;
13252;SDS011;6693;54.370;10.132;2023-11-19T01:53:46;7.78;;;3.85;;
13252;SDS011;6693;54.370;10.132;2023-11-19T01:54:51;6.82;;;3.13;;
13252;SDS011;6693;54.370;10.132;2023-11-19T01:55:53;6.80;;;3.08;;
13252;SDS011;6693;54.370;10.132;2023-11-19T01:56:56;7.13;;;3.28;;
13252;SDS011;6693;54.370;10.132;2023-11-19T01:57:58;8.00;;;4.40;;
13252;SDS011;6693;54.370;10.132;2023-11-19T01:59:00;5.60;;;2.88;;
13252;SDS011;6693;54.370;10.132;2023-11-19T02:00:06;7.22;;;3.25;;
13252;SDS011;6693;54.370;10.132;2023-11-19T02:01:07;7.07;;;3.78;;
13252;SDS011;6693;54.370;10.132;2023-11-19T02:02:11;7.15;;;4.03;;
13252;SDS011;6693;54.370;10.132;2023-11-19T02:03:12;6.47;;;3.25;;
13252;SDS011;6693;54.370;10.132;2023-11-19T02:04:17;7.20;;;3.17;;
13252;SDS011;6693;54.370;10.132;2023-11-19T02:05:20;5.88;;;2.47;;
13252;SDS011;6693;54.370;10.132;2023-11-19T02:06:24;5.78;;;2.40;;
13252;SDS011;6693;54.370;10.132;2023-11-19T02:07:26;6.30;;;2.60;;
13252;SDS011;6693;54.370;10.132;2023-11-19T02:08:30;7.03;;;3.05;;
13252;SDS011;6693;54.370;10.132;2023-11-19T02:09:32;7.03;;;2.80;;
13252;SDS011;6693;54.370;10.132;2023-11-19T02:10:35;6.80;;;2.47;;
13252;SDS011;6693;54.370;10.132;2023-11-19T02:11:36;5.40;;;1.98;;
13252;SDS011;6693;54.370;10.132;2023-11-19T02:12:40;6.15;;;3.20;;
13252;SDS011;6693;54.370;10.132;2023-11-19T02:13:43;7.05;;;2.95;;
13252;SDS011;6693;54.370;10.132;2023-11-19T02:14:46;6.05;;;2.45;;
13252;SDS011;6693;54.370;10.132;2023-11-19T02:15:47;5.35;;;1.92;;
13252;SDS011;6693;54.370;10.132;2023-11-19T02:16:50;6.00;;;2.80;;
13252;SDS011;6693;54.370;10.132;2023-11-19T02:17:51;6.30;;;2.60;;
13252;SDS011;6693;54.370;10.132;2023-11-19T02:18:54;6.47;;;2.70;;
13252;SDS011;6693;54.370;10.132;2023-11-19T02:19:55;6.28;;;2.47;;
13252;SDS011;6693;54.370;10.132;2023-11-19T02:20:58;5.97;;;2.78;;
13252;SDS011;6693;54.370;10.132;2023-11-19T02:22:02;5.13;;;2.17;;
13252;SDS011;6693;54.370;10.132;2023-11-19T02:23:02;7.03;;;2.50;;
13252;SDS011;6693;54.370;10.132;2023-11-19T02:24:03;5.65;;;2.50;;
13252;SDS011;6693;54.370;10.132;2023-11-19T02:25:15;5.13;;;1.90;;
13252;SDS011;6693;54.370;10.132;2023-11-19T02:26:21;4.80;;;1.60;;
13252;SDS011;6693;54.370;10.132;2023-11-19T02:27:29;5.20;;;1.58;;
13252;SDS011;6693;54.370;10.132;2023-11-19T02:28:34;6.35;;;2.10;;
13252;SDS011;6693;54.370;10.132;2023-11-19T02:29:38;5.03;;;2.08;;
13252;SDS011;6693;54.370;10.132;2023-11-19T02:30:39;6.05;;;1.50;;
13252;SDS011;6693;54.370;10.132;2023-11-19T02:31:39;6.03;;;1.90;;
13252;SDS011;6693;54.370;10.132;2023-11-19T02:32:43;6.85;;;2.47;;
13252;SDS011;6693;54.370;10.132;2023-11-19T02:33:43;4.93;;;1.70;;
13252;SDS011;6693;54.370;10.132;2023-11-19T02:34:47;4.88;;;1.58;;
13252;SDS011;6693;54.370;10.132;2023-11-19T02:35:47;5.72;;;1.92;;
13252;SDS011;6693;54.370;10.132;2023-11-19T02:36:51;6.13;;;1.63;;
13252;SDS011;6693;54.370;10.132;2023-11-19T02:37:54;4.65;;;1.63;;
13252;SDS011;6693;54.370;10.132;2023-11-19T02:39:00;4.55;;;1.75;;
13252;SDS011;6693;54.370;10.132;2023-11-19T02:40:04;7.47;;;1.70;;
13252;SDS011;6693;54.370;10.132;2023-11-19T02:41:10;8.30;;;1.85;;
13252;SDS011;6693;54.370;10.132;2023-11-19T02:42:12;10.48;;;1.63;;
13252;SDS011;6693;54.370;10.132;2023-11-19T02:43:15;6.40;;;2.00;;
13252;SDS011;6693;54.370;10.132;2023-11-19T02:44:19;9.05;;;1.98;;
13252;SDS011;6693;54.370;10.132;2023-11-19T02:45:22;6.97;;;1.75;;
13252;SDS011;6693;54.370;10.132;2023-11-19T02:46:23;7.45;;;1.88;;
13252;SDS011;6693;54.370;10.132;2023-11-19T02:47:26;5.50;;;1.73;;
13252;SDS011;6693;54.370;10.132;2023-11-19T02:48:30;4.93;;;1.33;;
13252;SDS011;6693;54.370;10.132;2023-11-19T02:49:35;6.35;;;1.83;;
13252;SDS011;6693;54.370;10.132;2023-11-19T02:50:37;6.03;;;1.60;;
13252;SDS011;6693;54.370;10.132;2023-11-19T02:51:38;5.57;;;1.83;;
13252;SDS011;6693;54.370;10.132;2023-11-19T02:52:41;5.40;;;1.60;;
13252;SDS011;6693;54.370;10.132;2023-11-19T02:53:42;4.13;;;1.30;;
13252;SDS011;6693;54.370;10.132;2023-11-19T02:54:48;5.75;;;1.63;;
13252;SDS011;6693;54.370;10.132;2023-11-19T02:55:49;8.38;;;1.60;;
13252;SDS011;6693;54.370;10.132;2023-11-19T02:56:50;5.20;;;1.40;;
13252;SDS011;6693;54.370;10.132;2023-11-19T02:57:59;6.63;;;1.65;;
13252;SDS011;6693;54.370;10.132;2023-11-19T02:59:00;5.57;;;1.35;;
13252;SDS011;6693;54.370;10.132;2023-11-19T03:00:18;5.28;;;1.60;;
13252;SDS011;6693;54.370;10.132;2023-11-19T03:01:33;4.40;;;1.23;;
13252;SDS011;6693;54.370;10.132;2023-11-19T03:02:38;5.03;;;1.52;;
13252;SDS011;6693;54.370;10.132;2023-11-19T03:03:44;5.10;;;2.08;;
13252;SDS011;6693;54.370;10.132;2023-11-19T03:04:49;4.38;;;1.60;;
13252;SDS011;6693;54.370;10.132;2023-11-19T03:05:51;4.05;;;1.20;;
13252;SDS011;6693;54.370;10.132;2023-11-19T03:06:55;5.50;;;1.40;;
13252;SDS011;6693;54.370;10.132;2023-11-19T03:07:56;4.03;;;1.20;;
13252;SDS011;6693;54.370;10.132;2023-11-19T03:08:57;5.10;;;1.48;;
13252;SDS011;6693;54.370;10.132;2023-11-19T03:10:07;4.50;;;1.50;;
13252;SDS011;6693;54.370;10.132;2023-11-19T03:11:09;4.45;;;1.60;;
13252;SDS011;6693;54.370;10.132;2023-11-19T03:12:12;4.57;;;1.70;;
13252;SDS011;6693;54.370;10.132;2023-11-19T03:13:15;4.18;;;1.63;;
13252;SDS011;6693;54.370;10.132;2023-11-19T03:14:19;6.82;;;3.13;;
13252;SDS011;6693;54.370;10.132;2023-11-19T03:15:23;5.35;;;1.70;;
13252;SDS011;6693;54.370;10.132;2023-11-19T03:16:23;3.92;;;1.30;;
13252;SDS011;6693;54.370;10.132;2023-11-19T03:17:29;3.42;;;0.90;;
13252;SDS011;6693;54.370;10.132;2023-11-19T03:18:30;3.70;;;0.98;;
13252;SDS011;6693;54.370;10.132;2023-11-19T03:19:31;3.47;;;0.90;;
13252;SDS011;6693;54.370;10.132;2023-11-19T03:20:34;3.40;;;1.02;;
13252;SDS011;6693;54.370;10.132;2023-11-19T03:21:35;4.20;;;0.95;;
13252;SDS011;6693;54.370;10.132;2023-11-19T03:22:40;3.67;;;1.02;;
13252;SDS011;6693;54.370;10.132;2023-11-19T03:23:41;3.30;;;0.73;;
13252;SDS011;6693;54.370;10.132;2023-11-19T03:24:50;3.88;;;0.80;;
13252;SDS011;6693;54.370;10.132;2023-11-19T03:25:51;2.58;;;0.52;;
13252;SDS011;6693;54.370;10.132;2023-11-19T03:26:54;3.42;;;0.88;;
13252;SDS011;6693;54.370;10.132;2023-11-19T03:27:55;3.10;;;0.82;;
13252;SDS011;6693;54.370;10.132;2023-11-19T03:28:56;2.80;;;0.70;;
13252;SDS011;6693;54.370;10.132;2023-11-19T03:29:59;4.57;;;0.90;;
13252;SDS011;6693;54.370;10.132;2023-11-19T03:31:07;4.05;;;0.95;;
13252;SDS011;6693;54.370;10.132;2023-11-19T03:32:11;3.33;;;1.20;;
13252;SDS011;6693;54.370;10.132;2023-11-19T03:33:12;4.25;;;0.90;;
13252;SDS011;6693;54.370;10.132;2023-11-19T03:34:12;3.08;;;0.70;;
13252;SDS011;6693;54.370;10.132;2023-11-19T03:35:17;4.30;;;0.65;;
13252;SDS011;6693;54.370;10.132;2023-11-19T03:36:18;3.13;;;0.73;;
13252;SDS011;6693;54.370;10.132;2023-11-19T03:37:22;3.53;;;0.63;;
13252;SDS011;6693;54.370;10.132;2023-11-19T03:38:24;2.75;;;0.85;;
13252;SDS011;6693;54.370;10.132;2023-11-19T03:39:28;3.50;;;0.50;;
13252;SDS011;6693;54.370;10.132;2023-11-19T03:40:29;3.25;;;0.65;;
13252;SDS011;6693;54.370;10.132;2023-11-19T03:41:30;2.33;;;0.50;;
13252;SDS011;6693;54.370;10.132;2023-11-19T03:42:42;2.47;;;0.65;;
13252;SDS011;6693;54.370;10.132;2023-11-19T03:43:44;4.90;;;0.95;;
13252;SDS011;6693;54.370;10.132;2023-11-19T03:44:49;2.35;;;0.55;;
13252;SDS011;6693;54.370;10.132;2023-11-19T03:45:53;4.10;;;0.60;;
13252;SDS011;6693;54.370;10.132;2023-11-19T03:46:56;2.53;;;0.57;;
13252;SDS011;6693;54.370;10.132;2023-11-19T03:48:02;3.40;;;0.65;;
13252;SDS011;6693;54.370;10.132;2023-11-19T03:49:03;2.95;;;0.70;;
13252;SDS011;6693;54.370;10.132;2023-11-19T03:50:07;4.32;;;0.77;;
13252;SDS011;6693;54.370;10.132;2023-11-19T03:51:10;3.08;;;0.60;;
13252;SDS011;6693;54.370;10.132;2023-11-19T03:52:15;3.10;;;0.73;;
13252;SDS011;6693;54.370;10.132;2023-11-19T03:53:16;3.65;;;0.65;;
13252;SDS011;6693;54.370;10.132;2023-11-19T03:54:19;3.38;;;0.63;;
13252;SDS011;6693;54.370;10.132;2023-11-19T03:55:21;4.00;;;0.57;;
13252;SDS011;6693;54.370;10.132;2023-11-19T03:56:24;3.22;;;0.77;;
13252;SDS011;6693;54.370;10.132;2023-11-19T03:57:25;2.75;;;0.60;;
13252;SDS011;6693;54.370;10.132;2023-11-19T03:58:28;2.83;;;0.60;;
13252;SDS011;6693;54.370;10.132;2023-11-19T03:59:29;2.38;;;0.40;;
13252;SDS011;6693;54.370;10.132;2023-11-19T04:00:32;2.92;;;0.47;;
13252;SDS011;6693;54.370;10.132;2023-11-19T04:01:33;3.25;;;0.50;;
13252;SDS011;6693;54.370;10.132;2023-11-19T04:02:40;3.10;;;0.50;;
13252;SDS011;6693;54.370;10.132;2023-11-19T04:03:40;2.67;;;0.40;;
13252;SDS011;6693;54.370;10.132;2023-11-19T04:04:41;2.25;;;0.70;;
13252;SDS011;6693;54.370;10.132;2023-11-19T04:05:45;2.33;;;0.60;;
13252;SDS011;6693;54.370;10.132;2023-11-19T04:06:46;3.20;;;0.40;;
13252;SDS011;6693;54.370;10.132;2023-11-19T04:07:49;4.03;;;0.52;;
13252;SDS011;6693;54.370;10.132;2023-11-19T04:08:50;2.60;;;0.50;;
13252;SDS011;6693;54.370;10.132;2023-11-19T04:09:53;2.30;;;0.40;;
13252;SDS011;6693;54.370;10.132;2023-11-19T04:10:54;5.20;;;0.60;;
13252;SDS011;6693;54.370;10.132;2023-11-19T04:11:57;3.13;;;0.50;;
13252;SDS011;6693;54.370;10.132;2023-11-19T04:13:00;2.83;;;0.50;;
13252;SDS011;6693;54.370;10.132;2023-11-19T04:14:03;1.83;;;0.45;;
13252;SDS011;6693;54.370;10.132;2023-11-19T04:15:05;2.75;;;0.50;;
13252;SDS011;6693;54.370;10.132;2023-11-19T04:16:09;2.22;;;0.40;;
13252;SDS011;6693;54.370;10.132;2023-11-19T04:17:10;2.17;;;0.43;;
13252;SDS011;6693;54.370;10.132;2023-11-19T04:18:16;2.47;;;0.50;;
13252;SDS011;6693;54.370;10.132;2023-11-19T04:19:17;3.03;;;0.45;;
13252;SDS011;6693;54.370;10.132;2023-11-19T04:20:20;2.45;;;0.50;;
13252;SDS011;6693;54.370;10.132;2023-11-19T04:21:21;2.25;;;0.40;;
13252;SDS011;6693;54.370;10.132;2023-11-19T04:22:24;1.92;;;0.30;;
13252;SDS011;6693;54.370;10.132;2023-11-19T04:23:25;1.73;;;0.40;;
13252;SDS011;6693;54.370;10.132;2023-11-19T04:24:28;1.67;;;0.30;;
13252;SDS011;6693;54.370;10.132;2023-11-19T04:25:29;1.65;;;0.40;;
13252;SDS011;6693;54.370;10.132;2023-11-19T04:26:32;1.83;;;0.40;;
13252;SDS011;6693;54.370;10.132;2023-11-19T04:27:33;3.10;;;0.40;;
13252;SDS011;6693;54.370;10.132;2023-11-19T04:28:36;1.83;;;0.40;;
13252;SDS011;6693;54.370;10.132;2023-11-19T04:29:37;2.67;;;0.50;;
13252;SDS011;6693;54.370;10.132;2023-11-19T04:30:40;2.53;;;0.65;;
13252;SDS011;6693;54.370;10.132;2023-11-19T04:31:41;1.95;;;0.50;;
13252;SDS011;6693;54.370;10.132;2023-11-19T04:32:42;1.92;;;0.43;;
13252;SDS011;6693;54.370;10.132;2023-11-19T04:33:48;2.50;;;0.60;;
13252;SDS011;6693;54.370;10.132;2023-11-19T04:34:49;1.88;;;0.40;;
13252;SDS011;6693;54.370;10.132;2023-11-19T04:35:52;1.95;;;0.45;;
13252;SDS011;6693;54.370;10.132;2023-11-19T04:36:53;2.65;;;0.60;;
13252;SDS011;6693;54.370;10.132;2023-11-19T04:37:57;3.00;;;0.60;;
13252;SDS011;6693;54.370;10.132;2023-11-19T04:39:00;3.17;;;0.60;;
13252;SDS011;6693;54.370;10.132;2023-11-19T04:40:01;2.08;;;0.50;;
13252;SDS011;6693;54.370;10.132;2023-11-19T04:41:05;2.50;;;0.55;;
13252;SDS011;6693;54.370;10.132;2023-11-19T04:42:06;2.55;;;0.52;;
13252;SDS011;6693;54.370;10.132;2023-11-19T04:43:09;2.65;;;0.52;;
13252;SDS011;6693;54.370;10.132;2023-11-19T04:44:10;2.25;;;0.60;;
13252;SDS011;6693;54.370;10.132;2023-11-19T04:45:13;4.03;;;0.50;;
13252;SDS011;6693;54.370;10.132;2023-11-19T04:46:16;3.85;;;0.60;;
13252;SDS011;6693;54.370;10.132;2023-11-19T04:47:19;2.38;;;0.68;;
13252;SDS011;6693;54.370;10.132;2023-11-19T04:48:20;2.00;;;0.47;;
13252;SDS011;6693;54.370;10.132;2023-11-19T04:49:26;1.75;;;0.30;;
13252;SDS011;6693;54.370;10.132;2023-11-19T04:50:27;2.42;;;0.52;;
13252;SDS011;6693;54.370;10.132;2023-11-19T04:51:30;2.45;;;0.52;;
13252;SDS011;6693;54.370;10.132;2023-11-19T04:52:33;2.90;;;0.63;;
13252;SDS011;6693;54.370;10.132;2023-11-19T04:53:34;2.03;;;0.55;;
13252;SDS011;6693;54.370;10.132;2023-11-19T04:54:40;2.80;;;0.60;;
13252;SDS011;6693;54.370;10.132;2023-11-19T04:55:41;3.38;;;0.63;;
13252;SDS011;6693;54.370;10.132;2023-11-19T04:56:45;2.28;;;0.60;;
13252;SDS011;6693;54.370;10.132;2023-11-19T04:57:45;2.08;;;0.50;;
13252;SDS011;6693;54.370;10.132;2023-11-19T04:58:49;2.50;;;0.50;;
13252;SDS011;6693;54.370;10.132;2023-11-19T04:59:49;2.50;;;0.60;;
13252;SDS011;6693;54.370;10.132;2023-11-19T05:00:55;3.78;;;0.63;;
13252;SDS011;6693;54.370;10.132;2023-11-19T05:01:56;3.38;;;0.50;;
13252;SDS011;6693;54.370;10.132;2023-11-19T05:03:00;1.70;;;0.30;;
13252;SDS011;6693;54.370;10.132;2023-11-19T05:04:01;2.90;;;0.70;;
13252;SDS011;6693;54.370;10.132;2023-11-19T05:05:04;1.90;;;0.50;;
13252;SDS011;6693;54.370;10.132;2023-11-19T05:06:09;1.75;;;0.30;;
13252;SDS011;6693;54.370;10.132;2023-11-19T05:07:09;2.70;;;0.63;;
13252;SDS011;6693;54.370;10.132;2023-11-19T05:08:13;2.80;;;0.80;;
13252;SDS011;6693;54.370;10.132;2023-11-19T05:09:14;2.72;;;0.60;;
13252;SDS011;6693;54.370;10.132;2023-11-19T05:10:18;2.40;;;0.60;;
13252;SDS011;6693;54.370;10.132;2023-11-19T05:11:18;2.72;;;0.70;;
13252;SDS011;6693;54.370;10.132;2023-11-19T05:12:22;2.45;;;0.55;;
13252;SDS011;6693;54.370;10.132;2023-11-19T05:13:23;2.58;;;0.60;;
13252;SDS011;6693;54.370;10.132;2023-11-19T05:14:26;3.13;;;0.57;;
13252;SDS011;6693;54.370;10.132;2023-11-19T05:15:27;3.97;;;0.60;;
13252;SDS011;6693;54.370;10.132;2023-11-19T05:16:30;2.42;;;0.40;;
13252;SDS011;6693;54.370;10.132;2023-11-19T05:17:31;2.35;;;0.55;;
13252;SDS011;6693;54.370;10.132;2023-11-19T05:18:37;2.55;;;0.40;;
13252;SDS011;6693;54.370;10.132;2023-11-19T05:19:38;1.65;;;0.20;;
13252;SDS011;6693;54.370;10.132;2023-11-19T05:20:45;1.98;;;0.40;;
13252;SDS011;6693;54.370;10.132;2023-11-19T05:21:46;2.42;;;0.57;;
13252;SDS011;6693;54.370;10.132;2023-11-19T05:22:52;1.13;;;0.22;;
13252;SDS011;6693;54.370;10.132;2023-11-19T05:23:55;2.20;;;0.40;;
13252;SDS011;6693;54.370;10.132;2023-11-19T05:24:59;1.17;;;0.20;;
13252;SDS011;6693;54.370;10.132;2023-11-19T05:26:00;3.17;;;0.50;;
13252;SDS011;6693;54.370;10.132;2023-11-19T05:27:00;3.55;;;0.40;;
13252;SDS011;6693;54.370;10.132;2023-11-19T05:28:04;2.45;;;0.40;;
13252;SDS011;6693;54.370;10.132;2023-11-19T05:29:04;1.65;;;0.40;;
13252;SDS011;6693;54.370;10.132;2023-11-19T05:30:06;2.25;;;0.55;;
13252;SDS011;6693;54.370;10.132;2023-11-19T05:31:10;2.40;;;0.43;;
13252;SDS011;6693;54.370;10.132;2023-11-19T05:32:11;2.30;;;0.50;;
13252;SDS011;6693;54.370;10.132;2023-11-19T05:33:14;2.45;;;0.40;;
13252;SDS011;6693;54.370;10.132;2023-11-19T05:34:15;1.58;;;0.40;;
13252;SDS011;6693;54.370;10.132;2023-11-19T05:35:15;2.05;;;0.40;;
13252;SDS011;6693;54.370;10.132;2023-11-19T05:36:21;3.50;;;0.50;;
13252;SDS011;6693;54.370;10.132;2023-11-19T05:37:22;2.90;;;0.50;;
13252;SDS011;6693;54.370;10.132;2023-11-19T05:38:23;2.08;;;0.40;;
13252;SDS011;6693;54.370;10.132;2023-11-19T05:39:27;2.75;;;0.45;;
13252;SDS011;6693;54.370;10.132;2023-11-19T05:40:27;2.55;;;0.38;;
13252;SDS011;6693;54.370;10.132;2023-11-19T05:41:30;3.15;;;0.50;;
13252;SDS011;6693;54.370;10.132;2023-11-19T05:42:31;1.45;;;0.30;;
13252;SDS011;6693;54.370;10.132;2023-11-19T05:43:35;2.47;;;0.40;;
13252;SDS011;6693;54.370;10.132;2023-11-19T05:44:35;2.65;;;0.45;;
13252;SDS011;6693;54.370;10.132;2023-11-19T05:45:40;3.38;;;0.90;;
13252;SDS011;6693;54.370;10.132;2023-11-19T05:46:40;2.13;;;0.43;;
13252;SDS011;6693;54.370;10.132;2023-11-19T05:47:44;2.97;;;0.70;;
13252;SDS011;6693;54.370;10.132;2023-11-19T05:48:48;2.45;;;0.50;;
13252;SDS011;6693;54.370;10.132;2023-11-19T05:49:51;3.35;;;0.60;;
13252;SDS011;6693;54.370;10.132;2023-11-19T05:50:52;3.33;;;0.63;;
13252;SDS011;6693;54.370;10.132;2023-11-19T05:51:58;3.92;;;1.15;;
13252;SDS011;6693;54.370;10.132;2023-11-19T05:52:59;2.22;;;0.55;;
13252;SDS011;6693;54.370;10.132;2023-11-19T05:54:02;3.47;;;1.00;;
13252;SDS011;6693;54.370;10.132;2023-11-19T05:55:04;5.47;;;2.25;;
13252;SDS011;6693;54.370;10.132;2023-11-19T05:56:10;4.30;;;1.10;;
13252;SDS011;6693;54.370;10.132;2023-11-19T05:57:10;3.53;;;1.10;;
13252;SDS011;6693;54.370;10.132;2023-11-19T05:58:14;4.43;;;1.10;;
13252;SDS011;6693;54.370;10.132;2023-11-19T05:59:15;4.57;;;1.15;;
13252;SDS011;6693;54.370;10.132;2023-11-19T06:00:19;4.15;;;1.40;;
13252;SDS011;6693;54.370;10.132;2023-11-19T06:01:19;5.97;;;1.80;;
13252;SDS011;6693;54.370;10.132;2023-11-19T06:02:23;6.13;;;1.70;;
13252;SDS011;6693;54.370;10.132;2023-11-19T06:03:23;4.68;;;1.00;;
13252;SDS011;6693;54.370;10.132;2023-11-19T06:04:27;7.32;;;1.15;;
13252;SDS011;6693;54.370;10.132;2023-11-19T06:05:28;7.30;;;1.48;;
13252;SDS011;6693;54.370;10.132;2023-11-19T06:06:32;7.50;;;1.77;;
13252;SDS011;6693;54.370;10.132;2023-11-19T06:07:35;5.35;;;1.08;;
13252;SDS011;6693;54.370;10.132;2023-11-19T06:08:36;6.95;;;1.42;;
13252;SDS011;6693;54.370;10.132;2023-11-19T06:09:40;5.72;;;1.80;;
13252;SDS011;6693;54.370;10.132;2023-11-19T06:10:40;4.97;;;1.60;;
13252;SDS011;6693;54.370;10.132;2023-11-19T06:11:46;4.85;;;1.00;;
13252;SDS011;6693;54.370;10.132;2023-11-19T06:12:47;4.65;;;1.17;;
13252;SDS011;6693;54.370;10.132;2023-11-19T06:13:56;5.07;;;1.65;;
13252;SDS011;6693;54.370;10.132;2023-11-19T06:14:57;4.03;;;1.27;;
13252;SDS011;6693;54.370;10.132;2023-11-19T06:16:00;5.93;;;1.60;;
13252;SDS011;6693;54.370;10.132;2023-11-19T06:17:03;5.72;;;1.70;;
13252;SDS011;6693;54.370;10.132;2023-11-19T06:18:08;7.22;;;1.95;;